sensor_id;sensor_type;location;lat;lon;timestamp;pressure;altitude;pressure_sealevel;temperature;humidity
51452;BME280;37521;52.020;-1.740;2023-04-01T00:01:13;98284.84;;;6.72;100.00
51452;BME280;37521;52.020;-1.740;2023-04-01T00:03:42;98280.44;;;6.73;100.00
51452;BME280;37521;52.020;-1.740;2023-04-01T00:06:13;98278.75;;;6.72;100.00
51452;BME280;37521;52.020;-1.740;2023-04-01T00:08:42;98286.63;;;6.72;100.00
51452;BME280;37521;52.020;-1.740;2023-04-01T00:11:11;98284.84;;;6.72;100.00
51452;BME280;37521;52.020;-1.740;2023-04-01T00:13:41;98294.50;;;6.72;100.00
51452;BME280;37521;52.020;-1.740;2023-04-01T00:16:09;98294.59;;;6.70;100.00
51452;BME280;37521;52.020;-1.740;2023-04-01T00:18:48;98292.06;;;6.69;100.00
51452;BME280;37521;52.020;-1.740;2023-04-01T00:21:17;98299.06;;;6.68;100.00
51452;BME280;37521;52.020;-1.740;2023-04-01T00:23:45;98301.78;;;6.67;100.00
51452;BME280;37521;52.020;-1.740;2023-04-01T00:26:14;98308.72;;;6.68;100.00
51452;BME280;37521;52.020;-1.740;2023-04-01T00:28:47;98304.31;;;6.68;100.00
51452;BME280;37521;52.020;-1.740;2023-04-01T00:31:15;98315.72;;;6.67;100.00
51452;BME280;37521;52.020;-1.740;2023-04-01T00:33:44;98313.22;;;6.66;100.00
51452;BME280;37521;52.020;-1.740;2023-04-01T00:36:14;98310.59;;;6.66;100.00
51452;BME280;37521;52.020;-1.740;2023-04-01T00:38:43;98312.38;;;6.65;100.00
51452;BME280;37521;52.020;-1.740;2023-04-01T00:41:13;98323.78;;;6.64;100.00
51452;BME280;37521;52.020;-1.740;2023-04-01T00:43:44;98321.25;;;6.63;100.00
51452;BME280;37521;52.020;-1.740;2023-04-01T00:46:14;98321.25;;;6.63;100.00
51452;BME280;37521;52.020;-1.740;2023-04-01T00:48:46;98320.47;;;6.61;100.00
51452;BME280;37521;52.020;-1.740;2023-04-01T00:51:18;98321.41;;;6.60;100.00
51452;BME280;37521;52.020;-1.740;2023-04-01T00:53:48;98325.81;;;6.59;100.00
51452;BME280;37521;52.020;-1.740;2023-04-01T00:56:21;98329.53;;;6.55;100.00
51452;BME280;37521;52.020;-1.740;2023-04-01T00:58:52;98334.88;;;6.53;100.00
51452;BME280;37521;52.020;-1.740;2023-04-01T01:01:25;98337.50;;;6.53;100.00
51452;BME280;37521;52.020;-1.740;2023-04-01T01:03:54;98334.88;;;6.53;100.00
51452;BME280;37521;52.020;-1.740;2023-04-01T01:06:30;98341.06;;;6.52;100.00
51452;BME280;37521;52.020;-1.740;2023-04-01T01:09:15;98347.16;;;6.53;100.00
51452;BME280;37521;52.020;-1.740;2023-04-01T01:11:50;98342.94;;;6.50;100.00
51452;BME280;37521;52.020;-1.740;2023-04-01T01:14:30;98345.56;;;6.50;100.00
51452;BME280;37521;52.020;-1.740;2023-04-01T01:17:08;98343.09;;;6.47;100.00
51452;BME280;37521;52.020;-1.740;2023-04-01T01:19:52;98341.41;;;6.46;100.00
51452;BME280;37521;52.020;-1.740;2023-04-01T01:22:36;98342.25;;;6.47;100.00
51452;BME280;37521;52.020;-1.740;2023-04-01T01:25:17;98350.19;;;6.45;100.00
51452;BME280;37521;52.020;-1.740;2023-04-01T01:27:58;98348.50;;;6.44;100.00
51452;BME280;37521;52.020;-1.740;2023-04-01T01:30:38;98350.19;;;6.45;100.00
51452;BME280;37521;52.020;-1.740;2023-04-01T01:33:22;98362.63;;;6.42;100.00
51452;BME280;37521;52.020;-1.740;2023-04-01T01:35:55;98365.25;;;6.42;100.00
51452;BME280;37521;52.020;-1.740;2023-04-01T01:38:28;98372.25;;;6.41;100.00
51452;BME280;37521;52.020;-1.740;2023-04-01T01:41:01;98364.59;;;6.38;100.00
51452;BME280;37521;52.020;-1.740;2023-04-01T01:43:34;98366.47;;;6.36;100.00
51452;BME280;37521;52.020;-1.740;2023-04-01T01:46:07;98367.34;;;6.35;100.00
51452;BME280;37521;52.020;-1.740;2023-04-01T01:48:37;98370.91;;;6.34;100.00
51452;BME280;37521;52.020;-1.740;2023-04-01T01:51:08;98378.78;;;6.34;100.00
51452;BME280;37521;52.020;-1.740;2023-04-01T01:53:36;98380.47;;;6.35;100.00
51452;BME280;37521;52.020;-1.740;2023-04-01T01:56:05;98381.41;;;6.34;100.00
51452;BME280;37521;52.020;-1.740;2023-04-01T01:58:39;98384.03;;;6.34;100.00
51452;BME280;37521;52.020;-1.740;2023-04-01T02:01:15;98384.03;;;6.34;100.00
51452;BME280;37521;52.020;-1.740;2023-04-01T02:03:45;98396.38;;;6.32;100.00
51452;BME280;37521;52.020;-1.740;2023-04-01T02:06:20;98389.44;;;6.31;100.00
51452;BME280;37521;52.020;-1.740;2023-04-01T02:08:52;98398.06;;;6.33;100.00
51452;BME280;37521;52.020;-1.740;2023-04-01T02:11:26;98398.91;;;6.34;100.00
51452;BME280;37521;52.020;-1.740;2023-04-01T02:13:57;98398.91;;;6.34;100.00
51452;BME280;37521;52.020;-1.740;2023-04-01T02:16:31;98409.41;;;6.34;100.00
51452;BME280;37521;52.020;-1.740;2023-04-01T02:19:01;98408.56;;;6.33;100.00
51452;BME280;37521;52.020;-1.740;2023-04-01T02:21:37;98412.09;;;6.32;100.00
51452;BME280;37521;52.020;-1.740;2023-04-01T02:24:11;98422.59;;;6.32;100.00
51452;BME280;37521;52.020;-1.740;2023-04-01T02:26:40;98413.78;;;6.33;100.00
51452;BME280;37521;52.020;-1.740;2023-04-01T02:29:11;98424.28;;;6.33;100.00
51452;BME280;37521;52.020;-1.740;2023-04-01T02:31:41;98424.28;;;6.33;100.00
51452;BME280;37521;52.020;-1.740;2023-04-01T02:34:11;98422.41;;;6.35;100.00
51452;BME280;37521;52.020;-1.740;2023-04-01T02:36:41;98424.28;;;6.33;100.00
51452;BME280;37521;52.020;-1.740;2023-04-01T02:39:11;98426.91;;;6.33;100.00
51452;BME280;37521;52.020;-1.740;2023-04-01T02:41:41;98432.38;;;6.28;100.00
51452;BME280;37521;52.020;-1.740;2023-04-01T02:44:11;98421.91;;;6.28;100.00
51452;BME280;37521;52.020;-1.740;2023-04-01T02:46:40;98424.59;;;6.27;100.00
51452;BME280;37521;52.020;-1.740;2023-04-01T02:49:09;98426.28;;;6.28;100.00
51452;BME280;37521;52.020;-1.740;2023-04-01T02:51:37;98431.53;;;6.28;100.00
51452;BME280;37521;52.020;-1.740;2023-04-01T02:54:07;98425.44;;;6.27;100.00
51452;BME280;37521;52.020;-1.740;2023-04-01T02:56:36;98428.91;;;6.28;100.00
51452;BME280;37521;52.020;-1.740;2023-04-01T02:59:04;98429.84;;;6.27;100.00
51452;BME280;37521;52.020;-1.740;2023-04-01T03:01:32;98429.09;;;6.25;100.00
51452;BME280;37521;52.020;-1.740;2023-04-01T03:04:00;98436.97;;;6.25;100.00
51452;BME280;37521;52.020;-1.740;2023-04-01T03:06:29;98440.50;;;6.24;100.00
51452;BME280;37521;52.020;-1.740;2023-04-01T03:08:57;98444.06;;;6.23;100.00
51452;BME280;37521;52.020;-1.740;2023-04-01T03:11:27;98446.75;;;6.21;100.00
51452;BME280;37521;52.020;-1.740;2023-04-01T03:13:55;98454.69;;;6.20;100.00
51452;BME280;37521;52.020;-1.740;2023-04-01T03:16:23;98447.75;;;6.19;100.00
51452;BME280;37521;52.020;-1.740;2023-04-01T03:18:53;98447.75;;;6.19;100.00
51452;BME280;37521;52.020;-1.740;2023-04-01T03:21:26;98448.69;;;6.18;100.00
51452;BME280;37521;52.020;-1.740;2023-04-01T03:23:57;98450.38;;;6.19;100.00
51452;BME280;37521;52.020;-1.740;2023-04-01T03:26:29;98453.00;;;6.19;100.00
51452;BME280;37521;52.020;-1.740;2023-04-01T03:28:57;98458.25;;;6.19;100.00
51452;BME280;37521;52.020;-1.740;2023-04-01T03:31:26;98461.63;;;6.21;100.00
51452;BME280;37521;52.020;-1.740;2023-04-01T03:33:56;98462.56;;;6.20;100.00
51452;BME280;37521;52.020;-1.740;2023-04-01T03:36:24;98466.88;;;6.21;100.00
51452;BME280;37521;52.020;-1.740;2023-04-01T03:38:52;98465.19;;;6.20;100.00
51452;BME280;37521;52.020;-1.740;2023-04-01T03:41:32;98463.50;;;6.19;100.00
51452;BME280;37521;52.020;-1.740;2023-04-01T03:44:00;98466.03;;;6.20;100.00
51452;BME280;37521;52.020;-1.740;2023-04-01T03:46:29;98468.63;;;6.20;100.00
51452;BME280;37521;52.020;-1.740;2023-04-01T03:48:57;98472.09;;;6.21;100.00
51452;BME280;37521;52.020;-1.740;2023-04-01T03:51:25;98473.88;;;6.20;100.00
51452;BME280;37521;52.020;-1.740;2023-04-01T03:53:53;98478.19;;;6.21;100.00
51452;BME280;37521;52.020;-1.740;2023-04-01T03:56:21;98475.66;;;6.20;100.00
51452;BME280;37521;52.020;-1.740;2023-04-01T03:58:51;98475.56;;;6.21;100.00
51452;BME280;37521;52.020;-1.740;2023-04-01T04:01:21;98480.81;;;6.21;100.00
51452;BME280;37521;52.020;-1.740;2023-04-01T04:03:53;98493.06;;;6.21;100.00
51452;BME280;37521;52.020;-1.740;2023-04-01T04:06:23;98494.94;;;6.19;100.00
51452;BME280;37521;52.020;-1.740;2023-04-01T04:08:52;98496.81;;;6.17;100.00
51452;BME280;37521;52.020;-1.740;2023-04-01T04:11:21;98499.41;;;6.17;100.00
51452;BME280;37521;52.020;-1.740;2023-04-01T04:13:52;98500.34;;;6.16;100.00
51452;BME280;37521;52.020;-1.740;2023-04-01T04:16:23;98499.41;;;6.17;100.00
51452;BME280;37521;52.020;-1.740;2023-04-01T04:18:56;98503.03;;;6.14;100.00
51452;BME280;37521;52.020;-1.740;2023-04-01T04:21:24;98506.59;;;6.13;100.00
51452;BME280;37521;52.020;-1.740;2023-04-01T04:23:53;98506.66;;;6.12;100.00
51452;BME280;37521;52.020;-1.740;2023-04-01T04:26:21;98508.44;;;6.11;100.00
51452;BME280;37521;52.020;-1.740;2023-04-01T04:28:57;98512.31;;;6.04;100.00
51452;BME280;37521;52.020;-1.740;2023-04-01T04:31:26;98520.72;;;5.93;100.00
51452;BME280;37521;52.020;-1.740;2023-04-01T04:33:58;98521.47;;;5.78;100.00
51452;BME280;37521;52.020;-1.740;2023-04-01T04:36:27;98524.63;;;5.67;100.00
51452;BME280;37521;52.020;-1.740;2023-04-01T04:38:55;98518.69;;;5.64;100.00
51452;BME280;37521;52.020;-1.740;2023-04-01T04:41:24;98531.03;;;5.62;100.00
51452;BME280;37521;52.020;-1.740;2023-04-01T04:43:55;98534.53;;;5.61;100.00
51452;BME280;37521;52.020;-1.740;2023-04-01T04:46:25;98537.34;;;5.58;100.00
51452;BME280;37521;52.020;-1.740;2023-04-01T04:49:01;98538.41;;;5.54;100.00
51452;BME280;37521;52.020;-1.740;2023-04-01T04:51:29;98548.03;;;5.53;100.00
51452;BME280;37521;52.020;-1.740;2023-04-01T04:54:00;98548.88;;;5.54;100.00
51452;BME280;37521;52.020;-1.740;2023-04-01T04:56:42;98549.72;;;5.54;100.00
51452;BME280;37521;52.020;-1.740;2023-04-01T04:59:10;98558.19;;;5.59;100.00
51452;BME280;37521;52.020;-1.740;2023-04-01T05:01:46;98554.91;;;5.56;100.00
51452;BME280;37521;52.020;-1.740;2023-04-01T05:04:15;98558.50;;;5.53;100.00
51452;BME280;37521;52.020;-1.740;2023-04-01T05:06:43;98562.88;;;5.53;100.00
51452;BME280;37521;52.020;-1.740;2023-04-01T05:09:13;98565.66;;;5.50;100.00
51452;BME280;37521;52.020;-1.740;2023-04-01T05:11:41;98569.13;;;5.50;100.00
51452;BME280;37521;52.020;-1.740;2023-04-01T05:14:13;98566.72;;;5.45;100.00
51452;BME280;37521;52.020;-1.740;2023-04-01T05:16:44;98577.06;;;5.49;100.00
51452;BME280;37521;52.020;-1.740;2023-04-01T05:19:14;98584.28;;;5.43;100.00
51452;BME280;37521;52.020;-1.740;2023-04-01T05:21:42;98587.28;;;5.36;100.00
51452;BME280;37521;52.020;-1.740;2023-04-01T05:24:11;98590.09;;;5.31;100.00
51452;BME280;37521;52.020;-1.740;2023-04-01T05:26:39;98589.25;;;5.31;100.00
51452;BME280;37521;52.020;-1.740;2023-04-01T05:29:07;98597.09;;;5.31;100.00
51452;BME280;37521;52.020;-1.740;2023-04-01T05:31:36;98599.25;;;5.23;100.00
51452;BME280;37521;52.020;-1.740;2023-04-01T05:34:05;98603.63;;;5.22;100.00
51452;BME280;37521;52.020;-1.740;2023-04-01T05:36:34;98601.31;;;5.16;100.00
51452;BME280;37521;52.020;-1.740;2023-04-01T05:39:02;98607.22;;;5.19;100.00
51452;BME280;37521;52.020;-1.740;2023-04-01T05:41:31;98606.38;;;5.19;100.00
51452;BME280;37521;52.020;-1.740;2023-04-01T05:43:59;98608.34;;;5.14;100.00
51452;BME280;37521;52.020;-1.740;2023-04-01T05:46:46;98613.53;;;5.15;100.00
51452;BME280;37521;52.020;-1.740;2023-04-01T05:49:19;98617.13;;;5.13;100.00
51452;BME280;37521;52.020;-1.740;2023-04-01T05:51:50;98620.81;;;5.09;100.00
51452;BME280;37521;52.020;-1.740;2023-04-01T05:54:19;98624.31;;;5.08;100.00
51452;BME280;37521;52.020;-1.740;2023-04-01T05:56:48;98628.72;;;5.07;100.00
51452;BME280;37521;52.020;-1.740;2023-04-01T05:59:17;98631.34;;;5.07;100.00
51452;BME280;37521;52.020;-1.740;2023-04-01T06:01:45;98632.34;;;5.05;100.00
51452;BME280;37521;52.020;-1.740;2023-04-01T06:04:15;98636.78;;;5.03;100.00
51452;BME280;37521;52.020;-1.740;2023-04-01T06:06:45;98636.78;;;5.03;100.00
51452;BME280;37521;52.020;-1.740;2023-04-01T06:09:17;98642.88;;;5.03;100.00
51452;BME280;37521;52.020;-1.740;2023-04-01T06:12:08;98647.38;;;5.00;100.00
51452;BME280;37521;52.020;-1.740;2023-04-01T06:14:50;98642.94;;;5.02;100.00
51452;BME280;37521;52.020;-1.740;2023-04-01T06:17:30;98645.63;;;5.00;100.00
51452;BME280;37521;52.020;-1.740;2023-04-01T06:20:09;98651.13;;;4.94;100.00
51452;BME280;37521;52.020;-1.740;2023-04-01T06:22:49;98652.03;;;4.93;100.00
51452;BME280;37521;52.020;-1.740;2023-04-01T06:25:32;98656.50;;;4.91;100.00
51452;BME280;37521;52.020;-1.740;2023-04-01T06:28:27;98659.13;;;4.91;100.00
51452;BME280;37521;52.020;-1.740;2023-04-01T06:31:04;98658.91;;;4.96;100.00
51452;BME280;37521;52.020;-1.740;2023-04-01T06:33:52;98659.13;;;4.91;100.00
51452;BME280;37521;52.020;-1.740;2023-04-01T06:36:39;98658.00;;;4.97;100.00
51452;BME280;37521;52.020;-1.740;2023-04-01T06:39:24;98663.91;;;5.00;100.00
51452;BME280;37521;52.020;-1.740;2023-04-01T06:42:17;98665.34;;;5.07;100.00
51452;BME280;37521;52.020;-1.740;2023-04-01T06:44:57;98676.66;;;5.08;100.00
51452;BME280;37521;52.020;-1.740;2023-04-01T06:47:58;98681.03;;;5.07;100.00
51452;BME280;37521;52.020;-1.740;2023-04-01T06:50:55;98680.19;;;5.07;100.00
51452;BME280;37521;52.020;-1.740;2023-04-01T06:53:51;98687.34;;;5.03;100.00
51452;BME280;37521;52.020;-1.740;2023-04-01T06:56:44;98689.22;;;5.00;100.00
51452;BME280;37521;52.020;-1.740;2023-04-01T06:59:25;98694.63;;;4.97;100.00
51452;BME280;37521;52.020;-1.740;2023-04-01T07:01:55;98697.22;;;4.97;100.00
51452;BME280;37521;52.020;-1.740;2023-04-01T07:04:29;98695.47;;;4.97;100.00
51452;BME280;37521;52.020;-1.740;2023-04-01T07:07:00;98703.13;;;5.02;100.00
51452;BME280;37521;52.020;-1.740;2023-04-01T07:09:32;98708.13;;;5.06;100.00
51452;BME280;37521;52.020;-1.740;2023-04-01T07:12:37;98712.22;;;5.12;100.00
51452;BME280;37521;52.020;-1.740;2023-04-01T07:15:30;98716.44;;;5.16;100.00
51452;BME280;37521;52.020;-1.740;2023-04-01T07:18:06;98719.97;;;5.15;100.00
51452;BME280;37521;52.020;-1.740;2023-04-01T07:20:38;98720.25;;;5.09;100.00
51452;BME280;37521;52.020;-1.740;2023-04-01T07:23:11;98723.47;;;5.14;100.00
51452;BME280;37521;52.020;-1.740;2023-04-01T07:26:08;98720.16;;;5.10;100.00
51452;BME280;37521;52.020;-1.740;2023-04-01T07:29:00;98717.53;;;5.10;100.00
51452;BME280;37521;52.020;-1.740;2023-04-01T07:31:49;98730.28;;;5.18;100.00
51452;BME280;37521;52.020;-1.740;2023-04-01T07:34:25;98729.34;;;5.19;100.00
51452;BME280;37521;52.020;-1.740;2023-04-01T07:36:58;98742.59;;;5.16;100.00
51452;BME280;37521;52.020;-1.740;2023-04-01T07:39:36;98744.41;;;5.14;100.00
51452;BME280;37521;52.020;-1.740;2023-04-01T07:42:19;98747.38;;;5.06;100.00
51452;BME280;37521;52.020;-1.740;2023-04-01T07:44:59;98751.94;;;5.01;100.00
51452;BME280;37521;52.020;-1.740;2023-04-01T07:47:41;98752.81;;;5.02;100.00
51452;BME280;37521;52.020;-1.740;2023-04-01T07:50:19;98762.47;;;5.00;100.00
51452;BME280;37521;52.020;-1.740;2023-04-01T07:52:59;98772.69;;;5.06;100.00
51452;BME280;37521;52.020;-1.740;2023-04-01T07:55:37;98773.34;;;5.11;100.00
51452;BME280;37521;52.020;-1.740;2023-04-01T07:58:14;98771.75;;;5.07;100.00
51452;BME280;37521;52.020;-1.740;2023-04-01T08:00:50;98780.41;;;5.09;100.00
51452;BME280;37521;52.020;-1.740;2023-04-01T08:03:39;98790.91;;;5.07;100.00
51452;BME280;37521;52.020;-1.740;2023-04-01T08:06:14;98793.59;;;5.06;100.00
51452;BME280;37521;52.020;-1.740;2023-04-01T08:08:52;98795.56;;;5.01;100.00
51452;BME280;37521;52.020;-1.740;2023-04-01T08:11:55;98804.47;;;4.97;100.00
51452;BME280;37521;52.020;-1.740;2023-04-01T08:14:53;98801.94;;;4.95;100.00
51452;BME280;37521;52.020;-1.740;2023-04-01T08:17:57;98812.69;;;4.87;100.00
51452;BME280;37521;52.020;-1.740;2023-04-01T08:20:34;98815.78;;;4.97;100.00
51452;BME280;37521;52.020;-1.740;2023-04-01T08:23:11;98816.63;;;4.98;100.00
51452;BME280;37521;52.020;-1.740;2023-04-01T08:25:47;98824.56;;;4.96;100.00
51452;BME280;37521;52.020;-1.740;2023-04-01T08:28:21;98829.72;;;4.98;100.00
51452;BME280;37521;52.020;-1.740;2023-04-01T08:30:55;98830.38;;;5.03;100.00
51452;BME280;37521;52.020;-1.740;2023-04-01T08:33:27;98832.84;;;5.06;100.00
51452;BME280;37521;52.020;-1.740;2023-04-01T08:36:08;98831.16;;;5.05;100.00
51452;BME280;37521;52.020;-1.740;2023-04-01T08:38:43;98839.78;;;5.07;100.00
51452;BME280;37521;52.020;-1.740;2023-04-01T08:41:28;98842.53;;;5.04;100.00
51452;BME280;37521;52.020;-1.740;2023-04-01T08:44:31;98852.41;;;4.97;100.00
51452;BME280;37521;52.020;-1.740;2023-04-01T08:47:13;98862.28;;;4.90;100.00
51452;BME280;37521;52.020;-1.740;2023-04-01T08:50:01;98859.72;;;4.89;100.00
51452;BME280;37521;52.020;-1.740;2023-04-01T08:53:00;98873.59;;;4.91;100.00
51452;BME280;37521;52.020;-1.740;2023-04-01T08:55:36;98875.19;;;4.95;100.00
51452;BME280;37521;52.020;-1.740;2023-04-01T08:58:27;98883.06;;;4.93;100.00
51452;BME280;37521;52.020;-1.740;2023-04-01T09:01:26;98883.13;;;4.92;100.00
51452;BME280;37521;52.020;-1.740;2023-04-01T09:04:22;98885.75;;;4.92;100.00
51452;BME280;37521;52.020;-1.740;2023-04-01T09:07:04;98892.06;;;4.86;100.00
51452;BME280;37521;52.020;-1.740;2023-04-01T09:10:00;98888.50;;;4.89;100.00
51452;BME280;37521;52.020;-1.740;2023-04-01T09:12:49;98896.38;;;4.87;100.00
51452;BME280;37521;52.020;-1.740;2023-04-01T09:15:37;98900.44;;;4.95;100.00
51452;BME280;37521;52.020;-1.740;2023-04-01T09:21:15;98905.31;;;5.04;100.00
51452;BME280;37521;52.020;-1.740;2023-04-01T09:24:06;98915.00;;;5.02;100.00
51452;BME280;37521;52.020;-1.740;2023-04-01T09:26:53;98912.50;;;4.99;100.00
51452;BME280;37521;52.020;-1.740;2023-04-01T09:29:44;98921.28;;;4.98;100.00
51452;BME280;37521;52.020;-1.740;2023-04-01T09:32:33;98925.72;;;4.96;100.00
51452;BME280;37521;52.020;-1.740;2023-04-01T09:35:22;98924.19;;;4.90;100.00
51452;BME280;37521;52.020;-1.740;2023-04-01T09:38:02;98926.06;;;4.86;100.00
51452;BME280;37521;52.020;-1.740;2023-04-01T09:40:37;98922.50;;;4.89;100.00
51452;BME280;37521;52.020;-1.740;2023-04-01T09:43:23;98930.38;;;4.87;100.00
51452;BME280;37521;52.020;-1.740;2023-04-01T09:46:03;98933.66;;;4.92;100.00
51452;BME280;37521;52.020;-1.740;2023-04-01T09:48:46;98933.56;;;4.96;100.00
51452;BME280;37521;52.020;-1.740;2023-04-01T09:51:27;98935.97;;;5.00;100.00
51452;BME280;37521;52.020;-1.740;2023-04-01T09:54:10;98941.56;;;5.13;100.00
51452;BME280;37521;52.020;-1.740;2023-04-01T10:03:30;98950.69;;;5.25;100.00
51452;BME280;37521;52.020;-1.740;2023-04-01T10:12:28;98965.19;;;5.32;100.00
51452;BME280;37521;52.020;-1.740;2023-04-01T10:18:26;98978.22;;;5.33;100.00
51452;BME280;37521;52.020;-1.740;2023-04-01T10:21:15;98986.47;;;5.24;100.00
51452;BME280;37521;52.020;-1.740;2023-04-01T10:24:02;98982.16;;;5.23;100.00
51452;BME280;37521;52.020;-1.740;2023-04-01T10:30:24;98992.28;;;5.31;100.00
51452;BME280;37521;52.020;-1.740;2023-04-01T10:42:08;99015.28;;;5.44;100.00
51452;BME280;37521;52.020;-1.740;2023-04-01T10:48:14;99016.59;;;5.55;100.00
51452;BME280;37521;52.020;-1.740;2023-04-01T10:51:10;99025.00;;;5.63;100.00
51452;BME280;37521;52.020;-1.740;2023-04-01T10:53:49;99030.25;;;5.63;100.00
51452;BME280;37521;52.020;-1.740;2023-04-01T10:56:49;99030.25;;;5.63;100.00
51452;BME280;37521;52.020;-1.740;2023-04-01T10:59:54;99033.63;;;5.65;100.00
51452;BME280;37521;52.020;-1.740;2023-04-01T11:06:43;99034.38;;;5.68;100.00
51452;BME280;37521;52.020;-1.740;2023-04-01T11:09:48;99053.66;;;5.66;100.00
51452;BME280;37521;52.020;-1.740;2023-04-01T11:12:45;99049.09;;;5.71;100.00
51452;BME280;37521;52.020;-1.740;2023-04-01T11:15:49;99054.75;;;5.82;100.00
51452;BME280;37521;52.020;-1.740;2023-04-01T11:18:48;99063.88;;;5.94;100.00
51452;BME280;37521;52.020;-1.740;2023-04-01T11:25:07;99066.16;;;6.01;100.00
51452;BME280;37521;52.020;-1.740;2023-04-01T11:30:49;99081.03;;;6.01;100.00
51452;BME280;37521;52.020;-1.740;2023-04-01T11:33:26;99086.75;;;6.11;100.00
51452;BME280;37521;52.020;-1.740;2023-04-01T11:36:18;99094.53;;;6.12;100.00
51452;BME280;37521;52.020;-1.740;2023-04-01T11:38:58;99094.72;;;6.08;100.00
51452;BME280;37521;52.020;-1.740;2023-04-01T11:41:51;99105.75;;;5.95;100.00
51452;BME280;37521;52.020;-1.740;2023-04-01T11:44:50;99109.91;;;5.99;100.00
51452;BME280;37521;52.020;-1.740;2023-04-01T11:47:48;99116.06;;;5.98;100.00
51452;BME280;37521;52.020;-1.740;2023-04-01T11:50:26;99121.31;;;5.98;100.00
51452;BME280;37521;52.020;-1.740;2023-04-01T11:53:13;99125.63;;;5.99;100.00
51452;BME280;37521;52.020;-1.740;2023-04-01T11:55:54;99131.13;;;5.93;100.00
51452;BME280;37521;52.020;-1.740;2023-04-01T11:58:35;99132.78;;;5.96;100.00
51452;BME280;37521;52.020;-1.740;2023-04-01T12:01:16;99135.78;;;6.07;100.00
51452;BME280;37521;52.020;-1.740;2023-04-01T12:04:15;99146.50;;;6.43;100.00
51452;BME280;37521;52.020;-1.740;2023-04-01T12:06:52;99143.09;;;6.80;100.00
51452;BME280;37521;52.020;-1.740;2023-04-01T12:09:33;99143.41;;;6.93;100.00
51452;BME280;37521;52.020;-1.740;2023-04-01T12:12:12;99151.38;;;7.10;100.00
51452;BME280;37521;52.020;-1.740;2023-04-01T12:14:53;99154.91;;;7.28;100.00
51452;BME280;37521;52.020;-1.740;2023-04-01T12:17:31;99149.59;;;7.30;100.00
51452;BME280;37521;52.020;-1.740;2023-04-01T12:20:22;99147.66;;;7.33;100.00
51452;BME280;37521;52.020;-1.740;2023-04-01T12:23:02;99154.13;;;7.45;100.00
51452;BME280;37521;52.020;-1.740;2023-04-01T12:25:49;99150.72;;;7.43;100.00
51452;BME280;37521;52.020;-1.740;2023-04-01T12:28:22;99155.81;;;7.46;100.00
51452;BME280;37521;52.020;-1.740;2023-04-01T12:31:00;99151.78;;;7.58;100.00
51452;BME280;37521;52.020;-1.740;2023-04-01T12:36:38;99161.56;;;7.54;100.00
51452;BME280;37521;52.020;-1.740;2023-04-01T12:39:22;99167.69;;;7.36;100.00
51452;BME280;37521;52.020;-1.740;2023-04-01T12:42:05;99180.19;;;7.31;100.00
51452;BME280;37521;52.020;-1.740;2023-04-01T12:44:44;99169.69;;;7.31;100.00
51452;BME280;37521;52.020;-1.740;2023-04-01T12:47:28;99170.44;;;7.33;100.00
51452;BME280;37521;52.020;-1.740;2023-04-01T12:50:19;99171.50;;;7.48;100.00
51452;BME280;37521;52.020;-1.740;2023-04-01T12:53:06;99183.84;;;7.64;100.00
51452;BME280;37521;52.020;-1.740;2023-04-01T12:55:39;99183.69;;;7.68;100.00
51452;BME280;37521;52.020;-1.740;2023-04-01T13:01:23;99184.50;;;7.51;100.00
51452;BME280;37521;52.020;-1.740;2023-04-01T13:04:09;99201.03;;;7.34;100.00
51452;BME280;37521;52.020;-1.740;2023-04-01T13:06:49;99198.13;;;7.21;100.00
51452;BME280;37521;52.020;-1.740;2023-04-01T13:09:33;99217.00;;;7.10;100.00
51452;BME280;37521;52.020;-1.740;2023-04-01T13:12:20;99209.81;;;7.14;100.00
51452;BME280;37521;52.020;-1.740;2023-04-01T13:17:51;99215.38;;;7.27;100.00
51452;BME280;37521;52.020;-1.740;2023-04-01T13:20:30;99215.66;;;7.40;100.00
51452;BME280;37521;52.020;-1.740;2023-04-01T13:23:11;99220.47;;;7.49;100.00
51452;BME280;37521;52.020;-1.740;2023-04-01T13:25:46;99212.28;;;7.56;100.00
51452;BME280;37521;52.020;-1.740;2023-04-01T13:28:38;99228.16;;;7.72;100.00
51452;BME280;37521;52.020;-1.740;2023-04-01T13:31:12;99221.69;;;7.79;100.00
51452;BME280;37521;52.020;-1.740;2023-04-01T13:33:57;99230.41;;;7.80;100.00
51452;BME280;37521;52.020;-1.740;2023-04-01T13:36:33;99230.00;;;7.70;100.00
51452;BME280;37521;52.020;-1.740;2023-04-01T13:39:15;99240.09;;;7.60;100.00
51452;BME280;37521;52.020;-1.740;2023-04-01T13:42:02;99252.00;;;7.68;100.00
51452;BME280;37521;52.020;-1.740;2023-04-01T13:44:38;99246.75;;;7.68;100.00
51452;BME280;37521;52.020;-1.740;2023-04-01T13:47:20;99251.88;;;7.71;100.00
51452;BME280;37521;52.020;-1.740;2023-04-01T13:50:17;99254.16;;;7.78;100.00
51452;BME280;37521;52.020;-1.740;2023-04-01T13:53:13;99248.78;;;7.99;100.00
51452;BME280;37521;52.020;-1.740;2023-04-01T13:55:54;99253.31;;;8.85;100.00
51452;BME280;37521;52.020;-1.740;2023-04-01T13:58:43;99249.06;;;9.33;100.00
51452;BME280;37521;52.020;-1.740;2023-04-01T14:01:25;99247.63;;;9.43;100.00
51452;BME280;37521;52.020;-1.740;2023-04-01T14:04:21;99247.03;;;9.53;100.00
51452;BME280;37521;52.020;-1.740;2023-04-01T14:07:10;99252.22;;;9.06;100.00
51452;BME280;37521;52.020;-1.740;2023-04-01T14:09:58;99262.38;;;8.62;100.00
51452;BME280;37521;52.020;-1.740;2023-04-01T14:12:32;99258.28;;;8.20;100.00
51452;BME280;37521;52.020;-1.740;2023-04-01T14:15:18;99265.78;;;7.91;100.00
51452;BME280;37521;52.020;-1.740;2023-04-01T14:20:48;99282.56;;;7.51;100.00
51452;BME280;37521;52.020;-1.740;2023-04-01T14:23:39;99292.59;;;7.42;100.00
51452;BME280;37521;52.020;-1.740;2023-04-01T14:26:21;99291.81;;;7.40;100.00
51452;BME280;37521;52.020;-1.740;2023-04-01T14:28:59;99301.31;;;7.42;100.00
51452;BME280;37521;52.020;-1.740;2023-04-01T14:31:41;99301.22;;;7.45;100.00
51452;BME280;37521;52.020;-1.740;2023-04-01T14:34:21;99305.53;;;7.46;100.00
51452;BME280;37521;52.020;-1.740;2023-04-01T14:37:03;99307.38;;;7.44;100.00
51452;BME280;37521;52.020;-1.740;2023-04-01T14:42:59;99314.75;;;7.36;100.00
51452;BME280;37521;52.020;-1.740;2023-04-01T14:45:45;99321.13;;;7.30;100.00
51452;BME280;37521;52.020;-1.740;2023-04-01T14:48:22;99329.34;;;7.23;100.00